X  Close Metar Aviation Weather Data     KCRE Grand Strand Airport
Temperature
57°F Temperature
55°F Dewpoint
94% Humidity



Wind
0 MPH
0 KM/H
0 M/S
0 KTS



Calm
North
Current Conditions

Mist Mist
Pressure 1019.62 (hPa) - 30.11 (inHg)
Visibility 0.6 (mile) - 1 (km)
Airport
Airport-code KCRE

Location: Grand Strand Airport
Distance: 6 (mi)

Metar:
KCRE 141028Z AUTO 00000KT 3/4SM BR CLR 14/13 A3011 RMK AO1 T01390128

Time: 04-14-2021 6:28 am EDT